sensor_id;sensor_type;location;lat;lon;timestamp;P1;durP1;ratioP1;P2;durP2;ratioP2
16314;SDS011;8266;52.150;4.768;2022-09-16T00:00:29;2.80;;;1.00;;
16314;SDS011;8266;52.150;4.768;2022-09-16T00:02:58;3.05;;;0.60;;
16314;SDS011;8266;52.150;4.768;2022-09-16T00:05:25;3.10;;;0.85;;
16314;SDS011;8266;52.150;4.768;2022-09-16T00:07:53;2.78;;;1.05;;
16314;SDS011;8266;52.150;4.768;2022-09-16T00:10:21;1.67;;;0.55;;
16314;SDS011;8266;52.150;4.768;2022-09-16T00:12:49;4.55;;;0.93;;
16314;SDS011;8266;52.150;4.768;2022-09-16T00:15:16;2.10;;;0.60;;
16314;SDS011;8266;52.150;4.768;2022-09-16T00:17:44;2.20;;;0.40;;
16314;SDS011;8266;52.150;4.768;2022-09-16T00:20:13;2.08;;;0.50;;
16314;SDS011;8266;52.150;4.768;2022-09-16T00:22:40;1.85;;;0.65;;
16314;SDS011;8266;52.150;4.768;2022-09-16T00:25:07;2.80;;;0.68;;
16314;SDS011;8266;52.150;4.768;2022-09-16T00:27:35;4.00;;;0.90;;
16314;SDS011;8266;52.150;4.768;2022-09-16T00:30:02;4.30;;;0.60;;
16314;SDS011;8266;52.150;4.768;2022-09-16T00:32:30;2.03;;;0.70;;
16314;SDS011;8266;52.150;4.768;2022-09-16T00:34:57;1.25;;;0.50;;
16314;SDS011;8266;52.150;4.768;2022-09-16T00:37:27;2.55;;;0.65;;
16314;SDS011;8266;52.150;4.768;2022-09-16T00:39:56;1.58;;;0.63;;
16314;SDS011;8266;52.150;4.768;2022-09-16T00:42:23;3.08;;;0.70;;
16314;SDS011;8266;52.150;4.768;2022-09-16T00:44:52;1.73;;;0.63;;
16314;SDS011;8266;52.150;4.768;2022-09-16T00:47:22;3.88;;;1.25;;
16314;SDS011;8266;52.150;4.768;2022-09-16T00:49:54;2.35;;;0.90;;
16314;SDS011;8266;52.150;4.768;2022-09-16T00:52:27;2.00;;;0.68;;
16314;SDS011;8266;52.150;4.768;2022-09-16T00:54:56;1.73;;;0.80;;
16314;SDS011;8266;52.150;4.768;2022-09-16T00:57:27;3.10;;;0.80;;
16314;SDS011;8266;52.150;4.768;2022-09-16T00:59:54;6.13;;;1.00;;
16314;SDS011;8266;52.150;4.768;2022-09-16T01:02:25;2.97;;;0.80;;
16314;SDS011;8266;52.150;4.768;2022-09-16T01:04:54;3.35;;;0.90;;
16314;SDS011;8266;52.150;4.768;2022-09-16T01:07:33;1.45;;;0.68;;
16314;SDS011;8266;52.150;4.768;2022-09-16T01:10:05;1.30;;;0.60;;
16314;SDS011;8266;52.150;4.768;2022-09-16T01:12:33;1.40;;;0.50;;
16314;SDS011;8266;52.150;4.768;2022-09-16T01:15:05;1.60;;;0.43;;
16314;SDS011;8266;52.150;4.768;2022-09-16T01:17:42;1.92;;;0.60;;
16314;SDS011;8266;52.150;4.768;2022-09-16T01:26:35;1.30;;;0.55;;
16314;SDS011;8266;52.150;4.768;2022-09-16T01:29:26;2.22;;;0.63;;
16314;SDS011;8266;52.150;4.768;2022-09-16T01:32:13;1.73;;;0.40;;
16314;SDS011;8266;52.150;4.768;2022-09-16T01:34:48;3.95;;;0.47;;
16314;SDS011;8266;52.150;4.768;2022-09-16T01:37:24;2.13;;;0.63;;
16314;SDS011;8266;52.150;4.768;2022-09-16T01:40:01;0.82;;;0.50;;
16314;SDS011;8266;52.150;4.768;2022-09-16T01:42:35;2.15;;;0.50;;
16314;SDS011;8266;52.150;4.768;2022-09-16T01:45:06;1.85;;;0.50;;
16314;SDS011;8266;52.150;4.768;2022-09-16T01:47:40;1.35;;;0.40;;
16314;SDS011;8266;52.150;4.768;2022-09-16T01:50:19;1.42;;;0.40;;
16314;SDS011;8266;52.150;4.768;2022-09-16T01:52:53;2.63;;;0.45;;
16314;SDS011;8266;52.150;4.768;2022-09-16T01:55:27;1.50;;;0.60;;
16314;SDS011;8266;52.150;4.768;2022-09-16T01:57:59;1.85;;;0.20;;
16314;SDS011;8266;52.150;4.768;2022-09-16T02:00:29;1.48;;;0.40;;
16314;SDS011;8266;52.150;4.768;2022-09-16T02:03:00;2.28;;;0.50;;
16314;SDS011;8266;52.150;4.768;2022-09-16T02:05:32;2.15;;;0.80;;
16314;SDS011;8266;52.150;4.768;2022-09-16T02:08:04;2.28;;;0.30;;
16314;SDS011;8266;52.150;4.768;2022-09-16T02:10:36;2.08;;;0.40;;
16314;SDS011;8266;52.150;4.768;2022-09-16T02:13:09;5.10;;;0.57;;
16314;SDS011;8266;52.150;4.768;2022-09-16T02:15:39;1.75;;;0.40;;
16314;SDS011;8266;52.150;4.768;2022-09-16T02:18:11;1.48;;;0.40;;
16314;SDS011;8266;52.150;4.768;2022-09-16T02:20:41;1.25;;;0.43;;
16314;SDS011;8266;52.150;4.768;2022-09-16T02:23:13;2.55;;;0.30;;
16314;SDS011;8266;52.150;4.768;2022-09-16T02:25:44;3.15;;;0.50;;
16314;SDS011;8266;52.150;4.768;2022-09-16T02:28:15;3.15;;;0.43;;
16314;SDS011;8266;52.150;4.768;2022-09-16T02:30:49;1.23;;;0.57;;
16314;SDS011;8266;52.150;4.768;2022-09-16T02:33:22;1.23;;;0.40;;
16314;SDS011;8266;52.150;4.768;2022-09-16T02:35:56;2.10;;;0.40;;
16314;SDS011;8266;52.150;4.768;2022-09-16T02:38:28;0.73;;;0.43;;
16314;SDS011;8266;52.150;4.768;2022-09-16T02:41:00;2.03;;;0.47;;
16314;SDS011;8266;52.150;4.768;2022-09-16T02:43:28;1.85;;;0.50;;
16314;SDS011;8266;52.150;4.768;2022-09-16T02:45:57;1.83;;;0.30;;
16314;SDS011;8266;52.150;4.768;2022-09-16T02:48:34;3.00;;;0.65;;
16314;SDS011;8266;52.150;4.768;2022-09-16T02:51:11;2.47;;;0.50;;
16314;SDS011;8266;52.150;4.768;2022-09-16T02:53:45;1.92;;;0.30;;
16314;SDS011;8266;52.150;4.768;2022-09-16T02:56:17;0.80;;;0.30;;
16314;SDS011;8266;52.150;4.768;2022-09-16T02:58:49;3.65;;;0.70;;
16314;SDS011;8266;52.150;4.768;2022-09-16T03:01:20;2.13;;;0.40;;
16314;SDS011;8266;52.150;4.768;2022-09-16T03:03:49;3.17;;;0.55;;
16314;SDS011;8266;52.150;4.768;2022-09-16T03:06:20;2.30;;;0.40;;
16314;SDS011;8266;52.150;4.768;2022-09-16T03:08:51;1.80;;;0.60;;
16314;SDS011;8266;52.150;4.768;2022-09-16T03:11:22;1.75;;;0.38;;
16314;SDS011;8266;52.150;4.768;2022-09-16T03:14:09;2.72;;;0.35;;
16314;SDS011;8266;52.150;4.768;2022-09-16T03:16:59;1.85;;;0.40;;
16314;SDS011;8266;52.150;4.768;2022-09-16T03:19:38;1.48;;;0.30;;
16314;SDS011;8266;52.150;4.768;2022-09-16T03:22:16;1.13;;;0.20;;
16314;SDS011;8266;52.150;4.768;2022-09-16T03:24:50;1.35;;;0.40;;
16314;SDS011;8266;52.150;4.768;2022-09-16T03:27:28;1.00;;;0.40;;
16314;SDS011;8266;52.150;4.768;2022-09-16T03:30:01;1.67;;;0.68;;
16314;SDS011;8266;52.150;4.768;2022-09-16T03:32:31;4.85;;;1.35;;
16314;SDS011;8266;52.150;4.768;2022-09-16T03:35:04;0.47;;;0.30;;
16314;SDS011;8266;52.150;4.768;2022-09-16T03:37:37;2.30;;;0.50;;
16314;SDS011;8266;52.150;4.768;2022-09-16T03:40:07;0.40;;;0.20;;
16314;SDS011;8266;52.150;4.768;2022-09-16T03:42:37;1.42;;;0.30;;
16314;SDS011;8266;52.150;4.768;2022-09-16T03:45:06;1.73;;;0.50;;
16314;SDS011;8266;52.150;4.768;2022-09-16T03:47:35;1.60;;;0.43;;
16314;SDS011;8266;52.150;4.768;2022-09-16T03:50:08;2.97;;;0.63;;
16314;SDS011;8266;52.150;4.768;2022-09-16T03:52:35;2.10;;;0.47;;
16314;SDS011;8266;52.150;4.768;2022-09-16T03:55:03;0.85;;;0.40;;
16314;SDS011;8266;52.150;4.768;2022-09-16T03:57:31;2.17;;;0.40;;
16314;SDS011;8266;52.150;4.768;2022-09-16T03:59:59;2.95;;;0.35;;
16314;SDS011;8266;52.150;4.768;2022-09-16T04:02:26;1.85;;;0.30;;
16314;SDS011;8266;52.150;4.768;2022-09-16T04:04:53;4.97;;;0.55;;
16314;SDS011;8266;52.150;4.768;2022-09-16T04:07:22;2.60;;;0.52;;
16314;SDS011;8266;52.150;4.768;2022-09-16T04:09:49;1.67;;;0.40;;
16314;SDS011;8266;52.150;4.768;2022-09-16T04:12:17;3.08;;;0.30;;
16314;SDS011;8266;52.150;4.768;2022-09-16T04:14:44;1.80;;;0.43;;
16314;SDS011;8266;52.150;4.768;2022-09-16T04:17:11;2.17;;;0.40;;
16314;SDS011;8266;52.150;4.768;2022-09-16T04:19:38;3.65;;;0.68;;
16314;SDS011;8266;52.150;4.768;2022-09-16T04:22:05;3.92;;;0.70;;
16314;SDS011;8266;52.150;4.768;2022-09-16T04:24:34;2.15;;;0.40;;
16314;SDS011;8266;52.150;4.768;2022-09-16T04:27:01;3.85;;;0.55;;
16314;SDS011;8266;52.150;4.768;2022-09-16T04:29:29;2.08;;;0.47;;
16314;SDS011;8266;52.150;4.768;2022-09-16T04:31:56;2.17;;;0.40;;
16314;SDS011;8266;52.150;4.768;2022-09-16T04:34:23;2.65;;;0.50;;
16314;SDS011;8266;52.150;4.768;2022-09-16T04:36:51;3.50;;;0.47;;
16314;SDS011;8266;52.150;4.768;2022-09-16T04:39:18;2.95;;;0.60;;
16314;SDS011;8266;52.150;4.768;2022-09-16T04:41:46;3.00;;;0.50;;
16314;SDS011;8266;52.150;4.768;2022-09-16T04:44:14;1.23;;;0.40;;
16314;SDS011;8266;52.150;4.768;2022-09-16T04:46:41;1.95;;;0.50;;
16314;SDS011;8266;52.150;4.768;2022-09-16T04:49:08;2.45;;;0.60;;
16314;SDS011;8266;52.150;4.768;2022-09-16T04:51:36;2.03;;;0.50;;
16314;SDS011;8266;52.150;4.768;2022-09-16T04:54:04;4.28;;;0.80;;
16314;SDS011;8266;52.150;4.768;2022-09-16T04:56:31;2.25;;;0.70;;
16314;SDS011;8266;52.150;4.768;2022-09-16T04:59:00;2.60;;;0.45;;
16314;SDS011;8266;52.150;4.768;2022-09-16T05:01:29;1.10;;;0.60;;
16314;SDS011;8266;52.150;4.768;2022-09-16T05:03:58;2.00;;;0.50;;
16314;SDS011;8266;52.150;4.768;2022-09-16T05:06:28;1.25;;;0.40;;
16314;SDS011;8266;52.150;4.768;2022-09-16T05:08:57;6.40;;;1.38;;
16314;SDS011;8266;52.150;4.768;2022-09-16T05:11:26;2.72;;;0.60;;
16314;SDS011;8266;52.150;4.768;2022-09-16T05:13:54;3.22;;;0.63;;
16314;SDS011;8266;52.150;4.768;2022-09-16T05:16:31;2.88;;;0.50;;
16314;SDS011;8266;52.150;4.768;2022-09-16T05:18:59;2.30;;;0.50;;
16314;SDS011;8266;52.150;4.768;2022-09-16T05:21:30;4.43;;;0.70;;
16314;SDS011;8266;52.150;4.768;2022-09-16T05:23:58;1.40;;;0.60;;
16314;SDS011;8266;52.150;4.768;2022-09-16T05:26:27;2.03;;;0.63;;
16314;SDS011;8266;52.150;4.768;2022-09-16T05:28:59;2.17;;;0.60;;
16314;SDS011;8266;52.150;4.768;2022-09-16T05:31:30;2.67;;;0.75;;
16314;SDS011;8266;52.150;4.768;2022-09-16T05:34:00;2.85;;;0.60;;
16314;SDS011;8266;52.150;4.768;2022-09-16T05:36:30;1.20;;;0.60;;
16314;SDS011;8266;52.150;4.768;2022-09-16T05:38:59;2.17;;;0.70;;
16314;SDS011;8266;52.150;4.768;2022-09-16T05:41:26;2.17;;;0.70;;
16314;SDS011;8266;52.150;4.768;2022-09-16T05:43:56;1.65;;;0.65;;
16314;SDS011;8266;52.150;4.768;2022-09-16T05:46:23;0.77;;;0.35;;
16314;SDS011;8266;52.150;4.768;2022-09-16T05:48:52;4.63;;;1.02;;
16314;SDS011;8266;52.150;4.768;2022-09-16T05:51:20;2.80;;;0.70;;
16314;SDS011;8266;52.150;4.768;2022-09-16T05:53:50;2.72;;;0.77;;
16314;SDS011;8266;52.150;4.768;2022-09-16T05:56:20;2.17;;;0.65;;
16314;SDS011;8266;52.150;4.768;2022-09-16T05:58:49;1.55;;;0.40;;
16314;SDS011;8266;52.150;4.768;2022-09-16T06:01:20;3.83;;;0.70;;
16314;SDS011;8266;52.150;4.768;2022-09-16T06:03:48;1.48;;;0.60;;
16314;SDS011;8266;52.150;4.768;2022-09-16T06:06:19;2.30;;;0.73;;
16314;SDS011;8266;52.150;4.768;2022-09-16T06:08:49;3.13;;;0.57;;
16314;SDS011;8266;52.150;4.768;2022-09-16T06:11:17;4.50;;;1.38;;
16314;SDS011;8266;52.150;4.768;2022-09-16T06:13:45;1.30;;;0.73;;
16314;SDS011;8266;52.150;4.768;2022-09-16T06:16:12;1.65;;;0.47;;
16314;SDS011;8266;52.150;4.768;2022-09-16T06:18:39;3.80;;;0.68;;
16314;SDS011;8266;52.150;4.768;2022-09-16T06:21:07;2.28;;;0.40;;
16314;SDS011;8266;52.150;4.768;2022-09-16T06:23:37;3.20;;;0.43;;
16314;SDS011;8266;52.150;4.768;2022-09-16T06:26:06;2.90;;;0.40;;
16314;SDS011;8266;52.150;4.768;2022-09-16T06:28:34;2.63;;;0.52;;
16314;SDS011;8266;52.150;4.768;2022-09-16T06:31:04;4.65;;;0.70;;
16314;SDS011;8266;52.150;4.768;2022-09-16T06:33:34;2.25;;;0.60;;
16314;SDS011;8266;52.150;4.768;2022-09-16T06:36:02;3.10;;;0.55;;
16314;SDS011;8266;52.150;4.768;2022-09-16T06:38:34;2.50;;;0.50;;
16314;SDS011;8266;52.150;4.768;2022-09-16T06:41:06;2.58;;;0.47;;
16314;SDS011;8266;52.150;4.768;2022-09-16T06:43:35;2.50;;;0.43;;
16314;SDS011;8266;52.150;4.768;2022-09-16T06:46:03;1.70;;;0.40;;
16314;SDS011;8266;52.150;4.768;2022-09-16T06:48:34;2.40;;;0.65;;
16314;SDS011;8266;52.150;4.768;2022-09-16T06:51:02;3.50;;;0.50;;
16314;SDS011;8266;52.150;4.768;2022-09-16T06:53:30;3.13;;;0.50;;
16314;SDS011;8266;52.150;4.768;2022-09-16T06:56:00;1.73;;;0.65;;
16314;SDS011;8266;52.150;4.768;2022-09-16T06:58:30;1.48;;;0.45;;
16314;SDS011;8266;52.150;4.768;2022-09-16T07:01:03;5.13;;;0.73;;
16314;SDS011;8266;52.150;4.768;2022-09-16T07:03:32;2.40;;;0.40;;
16314;SDS011;8266;52.150;4.768;2022-09-16T07:06:02;1.42;;;0.32;;
16314;SDS011;8266;52.150;4.768;2022-09-16T07:08:33;3.08;;;0.60;;
16314;SDS011;8266;52.150;4.768;2022-09-16T07:11:05;2.85;;;0.70;;
16314;SDS011;8266;52.150;4.768;2022-09-16T07:13:33;2.75;;;0.65;;
16314;SDS011;8266;52.150;4.768;2022-09-16T07:16:01;1.60;;;0.80;;
16314;SDS011;8266;52.150;4.768;2022-09-16T07:18:29;2.95;;;0.52;;
16314;SDS011;8266;52.150;4.768;2022-09-16T07:21:00;2.45;;;0.60;;
16314;SDS011;8266;52.150;4.768;2022-09-16T07:23:29;2.20;;;0.60;;
16314;SDS011;8266;52.150;4.768;2022-09-16T07:26:00;2.45;;;0.60;;
16314;SDS011;8266;52.150;4.768;2022-09-16T07:28:30;1.52;;;0.50;;
16314;SDS011;8266;52.150;4.768;2022-09-16T07:30:59;3.85;;;0.77;;
16314;SDS011;8266;52.150;4.768;2022-09-16T07:33:27;2.30;;;0.50;;
16314;SDS011;8266;52.150;4.768;2022-09-16T07:35:56;3.05;;;0.60;;
16314;SDS011;8266;52.150;4.768;2022-09-16T07:38:30;2.47;;;0.50;;
16314;SDS011;8266;52.150;4.768;2022-09-16T07:41:02;3.70;;;0.82;;
16314;SDS011;8266;52.150;4.768;2022-09-16T07:43:32;2.22;;;0.50;;
16314;SDS011;8266;52.150;4.768;2022-09-16T07:45:59;2.80;;;0.65;;
16314;SDS011;8266;52.150;4.768;2022-09-16T07:48:27;4.88;;;1.00;;
16314;SDS011;8266;52.150;4.768;2022-09-16T07:50:55;3.17;;;0.85;;
16314;SDS011;8266;52.150;4.768;2022-09-16T07:53:23;3.50;;;0.75;;
16314;SDS011;8266;52.150;4.768;2022-09-16T07:55:53;2.60;;;0.40;;
16314;SDS011;8266;52.150;4.768;2022-09-16T07:58:21;1.45;;;0.30;;
16314;SDS011;8266;52.150;4.768;2022-09-16T08:00:50;1.60;;;0.40;;
16314;SDS011;8266;52.150;4.768;2022-09-16T08:03:17;1.33;;;0.35;;
16314;SDS011;8266;52.150;4.768;2022-09-16T08:05:44;1.85;;;0.35;;
16314;SDS011;8266;52.150;4.768;2022-09-16T08:08:11;5.25;;;0.50;;
16314;SDS011;8266;52.150;4.768;2022-09-16T08:10:44;1.98;;;0.40;;
16314;SDS011;8266;52.150;4.768;2022-09-16T08:13:18;1.83;;;0.52;;
16314;SDS011;8266;52.150;4.768;2022-09-16T08:15:45;2.70;;;0.60;;
16314;SDS011;8266;52.150;4.768;2022-09-16T08:18:14;1.67;;;0.40;;
16314;SDS011;8266;52.150;4.768;2022-09-16T08:20:41;3.30;;;0.80;;
16314;SDS011;8266;52.150;4.768;2022-09-16T08:23:09;2.15;;;0.30;;
16314;SDS011;8266;52.150;4.768;2022-09-16T08:25:36;2.17;;;0.50;;
16314;SDS011;8266;52.150;4.768;2022-09-16T08:28:04;3.22;;;0.52;;
16314;SDS011;8266;52.150;4.768;2022-09-16T08:30:31;1.80;;;0.82;;
16314;SDS011;8266;52.150;4.768;2022-09-16T08:32:58;2.53;;;0.75;;
16314;SDS011;8266;52.150;4.768;2022-09-16T08:35:26;1.92;;;0.40;;
16314;SDS011;8266;52.150;4.768;2022-09-16T08:37:53;1.60;;;0.93;;
16314;SDS011;8266;52.150;4.768;2022-09-16T08:40:22;1.90;;;0.50;;
16314;SDS011;8266;52.150;4.768;2022-09-16T08:42:55;1.35;;;0.38;;
16314;SDS011;8266;52.150;4.768;2022-09-16T08:45:28;1.80;;;0.50;;
16314;SDS011;8266;52.150;4.768;2022-09-16T08:48:03;1.55;;;0.55;;
16314;SDS011;8266;52.150;4.768;2022-09-16T08:50:39;2.30;;;0.77;;
16314;SDS011;8266;52.150;4.768;2022-09-16T08:53:10;1.00;;;0.38;;
16314;SDS011;8266;52.150;4.768;2022-09-16T08:55:44;2.28;;;0.50;;
16314;SDS011;8266;52.150;4.768;2022-09-16T08:58:13;4.20;;;0.88;;
16314;SDS011;8266;52.150;4.768;2022-09-16T09:00:42;2.25;;;0.40;;
16314;SDS011;8266;52.150;4.768;2022-09-16T09:03:13;1.02;;;0.35;;
16314;SDS011;8266;52.150;4.768;2022-09-16T09:05:49;1.08;;;0.32;;
16314;SDS011;8266;52.150;4.768;2022-09-16T09:08:24;0.63;;;0.30;;
16314;SDS011;8266;52.150;4.768;2022-09-16T09:11:04;2.03;;;0.50;;
16314;SDS011;8266;52.150;4.768;2022-09-16T09:16:36;1.55;;;0.40;;
16314;SDS011;8266;52.150;4.768;2022-09-16T09:19:14;2.13;;;0.60;;
16314;SDS011;8266;52.150;4.768;2022-09-16T09:21:55;1.10;;;0.20;;
16314;SDS011;8266;52.150;4.768;2022-09-16T09:24:37;0.63;;;0.20;;
16314;SDS011;8266;52.150;4.768;2022-09-16T09:27:20;1.25;;;0.50;;
16314;SDS011;8266;52.150;4.768;2022-09-16T09:29:56;2.72;;;0.45;;
16314;SDS011;8266;52.150;4.768;2022-09-16T09:32:35;1.88;;;0.30;;
16314;SDS011;8266;52.150;4.768;2022-09-16T09:35:36;1.67;;;0.32;;
16314;SDS011;8266;52.150;4.768;2022-09-16T09:38:28;2.05;;;0.40;;
16314;SDS011;8266;52.150;4.768;2022-09-16T09:41:14;1.00;;;0.47;;
16314;SDS011;8266;52.150;4.768;2022-09-16T09:43:45;2.47;;;0.30;;
16314;SDS011;8266;52.150;4.768;2022-09-16T09:46:19;2.50;;;0.40;;
16314;SDS011;8266;52.150;4.768;2022-09-16T09:48:57;1.90;;;0.45;;
16314;SDS011;8266;52.150;4.768;2022-09-16T09:51:33;1.65;;;0.35;;
16314;SDS011;8266;52.150;4.768;2022-09-16T09:54:11;1.33;;;0.30;;
16314;SDS011;8266;52.150;4.768;2022-09-16T09:56:47;4.63;;;0.70;;
16314;SDS011;8266;52.150;4.768;2022-09-16T09:59:21;0.98;;;0.20;;
16314;SDS011;8266;52.150;4.768;2022-09-16T10:01:53;2.95;;;0.70;;
16314;SDS011;8266;52.150;4.768;2022-09-16T10:04:21;2.00;;;0.50;;
16314;SDS011;8266;52.150;4.768;2022-09-16T10:06:50;1.98;;;0.40;;
16314;SDS011;8266;52.150;4.768;2022-09-16T10:09:21;3.33;;;0.60;;
16314;SDS011;8266;52.150;4.768;2022-09-16T10:11:50;1.88;;;0.40;;
16314;SDS011;8266;52.150;4.768;2022-09-16T10:14:23;2.72;;;0.50;;
16314;SDS011;8266;52.150;4.768;2022-09-16T10:16:54;2.17;;;0.40;;
16314;SDS011;8266;52.150;4.768;2022-09-16T10:19:23;1.80;;;0.40;;
16314;SDS011;8266;52.150;4.768;2022-09-16T10:21:54;1.73;;;0.40;;
16314;SDS011;8266;52.150;4.768;2022-09-16T10:24:30;1.23;;;0.40;;
16314;SDS011;8266;52.150;4.768;2022-09-16T10:26:59;0.80;;;0.35;;
16314;SDS011;8266;52.150;4.768;2022-09-16T10:29:28;2.85;;;0.70;;
16314;SDS011;8266;52.150;4.768;2022-09-16T10:31:55;2.33;;;0.82;;
16314;SDS011;8266;52.150;4.768;2022-09-16T10:34:28;2.50;;;0.40;;
16314;SDS011;8266;52.150;4.768;2022-09-16T10:37:00;1.35;;;0.28;;
16314;SDS011;8266;52.150;4.768;2022-09-16T10:39:31;2.20;;;0.40;;
16314;SDS011;8266;52.150;4.768;2022-09-16T10:41:59;0.85;;;0.22;;
16314;SDS011;8266;52.150;4.768;2022-09-16T10:44:28;0.60;;;0.10;;
16314;SDS011;8266;52.150;4.768;2022-09-16T10:46:57;2.40;;;0.52;;
16314;SDS011;8266;52.150;4.768;2022-09-16T10:49:28;2.22;;;0.47;;
16314;SDS011;8266;52.150;4.768;2022-09-16T10:52:16;3.50;;;0.73;;
16314;SDS011;8266;52.150;4.768;2022-09-16T10:54:48;1.60;;;0.77;;
16314;SDS011;8266;52.150;4.768;2022-09-16T10:57:23;3.25;;;0.57;;
16314;SDS011;8266;52.150;4.768;2022-09-16T10:59:55;1.88;;;0.43;;
16314;SDS011;8266;52.150;4.768;2022-09-16T11:02:25;0.95;;;0.20;;
16314;SDS011;8266;52.150;4.768;2022-09-16T11:05:05;0.90;;;0.30;;
16314;SDS011;8266;52.150;4.768;2022-09-16T11:07:39;2.10;;;0.47;;
16314;SDS011;8266;52.150;4.768;2022-09-16T11:10:15;1.13;;;0.40;;
16314;SDS011;8266;52.150;4.768;2022-09-16T11:15:44;1.90;;;0.20;;
16314;SDS011;8266;52.150;4.768;2022-09-16T11:18:25;1.20;;;0.30;;
16314;SDS011;8266;52.150;4.768;2022-09-16T11:21:12;2.42;;;0.50;;
16314;SDS011;8266;52.150;4.768;2022-09-16T11:23:56;3.22;;;0.65;;
16314;SDS011;8266;52.150;4.768;2022-09-16T11:26:51;3.65;;;0.90;;
16314;SDS011;8266;52.150;4.768;2022-09-16T11:29:33;3.83;;;0.90;;
16314;SDS011;8266;52.150;4.768;2022-09-16T11:32:13;3.85;;;0.95;;
16314;SDS011;8266;52.150;4.768;2022-09-16T11:34:55;3.55;;;0.70;;
16314;SDS011;8266;52.150;4.768;2022-09-16T11:37:32;4.88;;;0.77;;
16314;SDS011;8266;52.150;4.768;2022-09-16T11:40:08;5.53;;;1.30;;
16314;SDS011;8266;52.150;4.768;2022-09-16T11:42:45;6.10;;;1.08;;
16314;SDS011;8266;52.150;4.768;2022-09-16T11:45:21;6.03;;;1.00;;
16314;SDS011;8266;52.150;4.768;2022-09-16T11:47:59;2.53;;;0.80;;
16314;SDS011;8266;52.150;4.768;2022-09-16T11:50:43;4.25;;;0.93;;
16314;SDS011;8266;52.150;4.768;2022-09-16T11:56:12;3.97;;;1.38;;
16314;SDS011;8266;52.150;4.768;2022-09-16T11:58:46;4.68;;;1.15;;
16314;SDS011;8266;52.150;4.768;2022-09-16T12:01:20;6.32;;;1.42;;
16314;SDS011;8266;52.150;4.768;2022-09-16T12:03:54;8.63;;;1.40;;
16314;SDS011;8266;52.150;4.768;2022-09-16T12:06:33;4.22;;;1.13;;
16314;SDS011;8266;52.150;4.768;2022-09-16T12:09:08;3.08;;;1.15;;
16314;SDS011;8266;52.150;4.768;2022-09-16T12:11:39;4.60;;;1.30;;
16314;SDS011;8266;52.150;4.768;2022-09-16T12:14:13;5.32;;;1.27;;
16314;SDS011;8266;52.150;4.768;2022-09-16T12:16:45;8.98;;;1.67;;
16314;SDS011;8266;52.150;4.768;2022-09-16T12:19:16;5.15;;;1.30;;
16314;SDS011;8266;52.150;4.768;2022-09-16T12:21:48;4.90;;;0.95;;
16314;SDS011;8266;52.150;4.768;2022-09-16T12:24:18;4.30;;;0.80;;
16314;SDS011;8266;52.150;4.768;2022-09-16T12:26:53;5.13;;;1.25;;
16314;SDS011;8266;52.150;4.768;2022-09-16T12:29:28;3.25;;;1.10;;
16314;SDS011;8266;52.150;4.768;2022-09-16T12:32:02;6.53;;;1.80;;
16314;SDS011;8266;52.150;4.768;2022-09-16T12:34:32;3.17;;;1.00;;
16314;SDS011;8266;52.150;4.768;2022-09-16T12:37:05;4.75;;;1.08;;
16314;SDS011;8266;52.150;4.768;2022-09-16T12:39:47;5.00;;;1.13;;
16314;SDS011;8266;52.150;4.768;2022-09-16T12:42:32;4.90;;;1.10;;
16314;SDS011;8266;52.150;4.768;2022-09-16T12:45:24;4.82;;;1.08;;
16314;SDS011;8266;52.150;4.768;2022-09-16T12:48:23;5.32;;;1.00;;
16314;SDS011;8266;52.150;4.768;2022-09-16T12:51:23;4.50;;;0.80;;
16314;SDS011;8266;52.150;4.768;2022-09-16T12:54:06;2.90;;;0.88;;
16314;SDS011;8266;52.150;4.768;2022-09-16T12:57:05;3.92;;;1.00;;
16314;SDS011;8266;52.150;4.768;2022-09-16T12:59:47;3.83;;;1.00;;
16314;SDS011;8266;52.150;4.768;2022-09-16T13:02:27;4.65;;;0.95;;
16314;SDS011;8266;52.150;4.768;2022-09-16T13:05:00;5.45;;;1.17;;
16314;SDS011;8266;52.150;4.768;2022-09-16T13:07:36;4.68;;;1.02;;
16314;SDS011;8266;52.150;4.768;2022-09-16T13:10:06;6.22;;;1.60;;
16314;SDS011;8266;52.150;4.768;2022-09-16T13:12:41;6.10;;;1.00;;
16314;SDS011;8266;52.150;4.768;2022-09-16T13:15:21;5.60;;;1.23;;
16314;SDS011;8266;52.150;4.768;2022-09-16T13:17:52;4.00;;;1.08;;
16314;SDS011;8266;52.150;4.768;2022-09-16T13:20:21;6.25;;;1.38;;
16314;SDS011;8266;52.150;4.768;2022-09-16T13:22:57;3.13;;;0.82;;
16314;SDS011;8266;52.150;4.768;2022-09-16T13:25:31;5.90;;;1.20;;
16314;SDS011;8266;52.150;4.768;2022-09-16T13:28:01;4.10;;;1.52;;
16314;SDS011;8266;52.150;4.768;2022-09-16T13:30:31;3.33;;;1.08;;
16314;SDS011;8266;52.150;4.768;2022-09-16T13:36:00;6.03;;;0.90;;
16314;SDS011;8266;52.150;4.768;2022-09-16T13:38:37;2.90;;;0.93;;
16314;SDS011;8266;52.150;4.768;2022-09-16T13:41:05;4.13;;;0.90;;
16314;SDS011;8266;52.150;4.768;2022-09-16T13:43:35;6.35;;;1.17;;
16314;SDS011;8266;52.150;4.768;2022-09-16T13:46:25;3.70;;;1.00;;
16314;SDS011;8266;52.150;4.768;2022-09-16T13:48:57;4.03;;;1.10;;
16314;SDS011;8266;52.150;4.768;2022-09-16T13:51:42;4.10;;;0.75;;
16314;SDS011;8266;52.150;4.768;2022-09-16T13:54:21;3.97;;;0.90;;
16314;SDS011;8266;52.150;4.768;2022-09-16T13:57:09;3.67;;;0.93;;
16314;SDS011;8266;52.150;4.768;2022-09-16T14:02:40;2.28;;;0.60;;
16314;SDS011;8266;52.150;4.768;2022-09-16T14:05:27;4.28;;;0.75;;
16314;SDS011;8266;52.150;4.768;2022-09-16T14:08:14;4.22;;;0.80;;
16314;SDS011;8266;52.150;4.768;2022-09-16T14:10:53;6.20;;;0.82;;
16314;SDS011;8266;52.150;4.768;2022-09-16T14:13:30;3.58;;;0.90;;
16314;SDS011;8266;52.150;4.768;2022-09-16T14:16:03;1.27;;;0.40;;
16314;SDS011;8266;52.150;4.768;2022-09-16T14:18:39;3.65;;;1.30;;
16314;SDS011;8266;52.150;4.768;2022-09-16T14:21:17;4.13;;;0.90;;
16314;SDS011;8266;52.150;4.768;2022-09-16T14:23:45;3.47;;;1.15;;
16314;SDS011;8266;52.150;4.768;2022-09-16T14:26:14;5.00;;;1.48;;
16314;SDS011;8266;52.150;4.768;2022-09-16T14:28:42;5.00;;;0.77;;
16314;SDS011;8266;52.150;4.768;2022-09-16T14:31:12;4.75;;;0.80;;
16314;SDS011;8266;52.150;4.768;2022-09-16T14:33:43;3.95;;;1.15;;
16314;SDS011;8266;52.150;4.768;2022-09-16T14:36:17;5.65;;;0.93;;
16314;SDS011;8266;52.150;4.768;2022-09-16T14:38:48;7.53;;;1.30;;
16314;SDS011;8266;52.150;4.768;2022-09-16T14:41:21;2.22;;;0.85;;
16314;SDS011;8266;52.150;4.768;2022-09-16T14:43:51;3.17;;;0.82;;
16314;SDS011;8266;52.150;4.768;2022-09-16T14:46:20;3.53;;;0.98;;
16314;SDS011;8266;52.150;4.768;2022-09-16T14:48:48;4.13;;;1.50;;
16314;SDS011;8266;52.150;4.768;2022-09-16T14:51:19;3.90;;;0.93;;
16314;SDS011;8266;52.150;4.768;2022-09-16T14:53:55;4.32;;;1.00;;
16314;SDS011;8266;52.150;4.768;2022-09-16T14:56:24;3.75;;;1.23;;
16314;SDS011;8266;52.150;4.768;2022-09-16T14:58:51;4.15;;;1.23;;
16314;SDS011;8266;52.150;4.768;2022-09-16T15:01:20;3.65;;;0.95;;
16314;SDS011;8266;52.150;4.768;2022-09-16T15:03:50;4.22;;;0.70;;
16314;SDS011;8266;52.150;4.768;2022-09-16T15:06:23;3.40;;;0.73;;
16314;SDS011;8266;52.150;4.768;2022-09-16T15:08:54;3.00;;;0.90;;
16314;SDS011;8266;52.150;4.768;2022-09-16T15:11:25;5.43;;;0.90;;
16314;SDS011;8266;52.150;4.768;2022-09-16T15:14:00;5.50;;;0.70;;
16314;SDS011;8266;52.150;4.768;2022-09-16T15:16:30;6.07;;;1.10;;
16314;SDS011;8266;52.150;4.768;2022-09-16T15:19:05;2.72;;;0.63;;
16314;SDS011;8266;52.150;4.768;2022-09-16T15:21:34;6.72;;;1.02;;
16314;SDS011;8266;52.150;4.768;2022-09-16T15:24:05;4.57;;;1.50;;
16314;SDS011;8266;52.150;4.768;2022-09-16T15:26:43;4.85;;;1.17;;
16314;SDS011;8266;52.150;4.768;2022-09-16T15:29:23;3.92;;;1.40;;
16314;SDS011;8266;52.150;4.768;2022-09-16T15:31:53;3.75;;;1.00;;
16314;SDS011;8266;52.150;4.768;2022-09-16T15:34:31;2.55;;;0.80;;
16314;SDS011;8266;52.150;4.768;2022-09-16T15:36:59;3.97;;;0.93;;
16314;SDS011;8266;52.150;4.768;2022-09-16T15:39:27;4.65;;;1.15;;
16314;SDS011;8266;52.150;4.768;2022-09-16T15:42:02;3.42;;;0.80;;
16314;SDS011;8266;52.150;4.768;2022-09-16T15:44:42;4.43;;;0.90;;
16314;SDS011;8266;52.150;4.768;2022-09-16T15:47:19;4.13;;;1.17;;
16314;SDS011;8266;52.150;4.768;2022-09-16T15:49:49;4.50;;;1.00;;
16314;SDS011;8266;52.150;4.768;2022-09-16T15:52:22;5.82;;;1.30;;